Jefferson, TX

3:49 AM CDT on April 18, 2015 (GMT -0500)
APRSWXNET | | Change Station
CLOSE
Current Station
Personal Weather Station
Location: Linden, TX
Elevation: 249 ft
Nearby Weather Stations

Elev 249 ft 32.98 °N, 94.45 °W | Updated 29 minutes ago

Rain
Rain
65 °F
Feels Like 65 °F
N
0
Wind Variable Wind from NNW
Gusts 5.0 mph

Today
High -- | Low -- °F
--% Chance of Precip.
Yesterday
High -- | Low -- °F
Precip. -- in
6:44 AM 7:49 PM
Waning Crescent, 0% visible
Pressure 29.93 in
Visibility 5.0 miles
Clouds Overcast 9500 ft
Dew Point 64 °F
Humidity 98%
Rainfall in
Snow Depth Not available.
UV 0 out of 12
Pollen 9.00 out of 12
Air Quality Not available.
Flu Activity Local Activity
METAR KASL 180835Z AUTO 00000KT 5SM OVC095 20/19 A2993 RMK AO1 T02020189

More Conditions Fewer Conditions

Pressure 29.93 in
Visibility 5.0 miles
Clouds Overcast 9500 ft
Dew Point 64 °F
Humidity 98%
Rainfall in
Snow Depth Not available.
UV 0 out of 12
Pollen 9.00 out of 12
Air Quality Not available.
Flu Activity Local Activity
METAR KASL 180835Z AUTO 00000KT 5SM OVC095 20/19 A2993 RMK AO1 T02020189

More Conditions Fewer Conditions

Nowcast | as of 2:54 am CDT on April 18, 2015

Scattered showers and a few isolated thunderstorms will continue to develop and spread north northeast across East Texas...southeast Oklahoma...adjacent southwest Arkansas and northern Louisiana...during the next couple of hours. Brief heavy rainfall will be possible in the stronger showers and isolated thunderstorms...affecting the cities of Clarksville and Bogata Texas...as well as Valliant and Ringold Oklahoma during the next hour. Rainfall amounts of a half to three quarters of an inch will be possible over these areas. Elsewhere...rainfall amounts will be lighter...generally ranging from a few hundreths up to a tenth of an inch...through 5 am. Additional redevlopment will occur and spread east northeast throughout the remainder of the overnight hours.

×

10-Day Weather Forecast

Almanac

Astronomy

Apr. 18, 2015 Rise Set
Actual Time
Civil Twilight
Nautical Twilight
Astronomical Twilight
Moon
Length of Visible Light
Length of Day
Tomorrow will be .
, % of the Moon is Illuminated

Today's Extremes

State Highs State Lows

Community

WunderPhotos

Upload Photos

1,814,345 photos uploaded!

WunderBlogs® & News

Nearby

Air Quality

  Air Quality AQ Index Pollutant
Not available.

Snow Depth

Station Depth Elevation

Earthquake Activity

City Distance Mag. Time & Date
Minimum magnitude displayed is 2.5.

Coastal Water Temperatures

Place Temperature

Stations

Nearby Weather Stations

Station Location Temp. Windchill Dew Point Humidity Wind Precip. Elev Updated Type